createdAt,value
2023-02-02T00:01:15.910Z,15.20
2023-02-02T00:03:44.186Z,20.03
2023-02-02T00:06:11.881Z,21.07
2023-02-02T00:08:39.348Z,17.17
2023-02-02T00:11:06.724Z,17.73
2023-02-02T00:13:33.769Z,13.73
2023-02-02T00:16:22.031Z,19.87
2023-02-02T00:18:50.679Z,26.90
2023-02-02T00:21:17.618Z,20.87
2023-02-02T00:23:44.695Z,21.47
2023-02-02T00:26:11.945Z,16.90
2023-02-02T00:28:38.931Z,24.07
2023-02-02T00:31:05.836Z,21.37
2023-02-02T00:33:32.860Z,21.40
2023-02-02T00:36:01.210Z,24.07
2023-02-02T00:38:28.235Z,18.20
2023-02-02T00:40:55.487Z,22.37
2023-02-02T00:43:22.392Z,23.80
2023-02-02T00:45:50.162Z,29.23
2023-02-02T00:48:17.060Z,13.23
2023-02-02T00:50:44.428Z,16.27
2023-02-02T00:53:14.379Z,18.77
2023-02-02T00:55:41.708Z,28.47
2023-02-02T00:58:08.668Z,15.67
2023-02-02T01:00:36.259Z,17.97
2023-02-02T01:03:07.588Z,18.73
2023-02-02T01:05:35.288Z,12.03
2023-02-02T01:08:02.433Z,21.57
2023-02-02T01:10:31.424Z,23.00
2023-02-02T01:12:58.320Z,22.33
2023-02-02T01:15:31.789Z,19.60
2023-02-02T01:17:58.766Z,20.30
2023-02-02T01:20:26.282Z,20.93
2023-02-02T01:22:53.206Z,19.50
2023-02-02T01:25:20.567Z,25.37
2023-02-02T01:27:49.345Z,22.37
2023-02-02T01:30:16.851Z,21.70
2023-02-02T01:32:43.768Z,12.90
2023-02-02T01:35:11.230Z,21.80
2023-02-02T01:37:40.200Z,23.57
2023-02-02T01:40:08.734Z,19.37
2023-02-02T01:42:35.694Z,20.87
2023-02-02T01:45:21.302Z,20.70
2023-02-02T01:47:51.800Z,15.00
2023-02-02T01:50:21.900Z,21.67
2023-02-02T01:52:51.706Z,21.87
2023-02-02T01:55:22.594Z,26.30
2023-02-02T01:57:52.750Z,33.30
2023-02-02T02:00:25.730Z,16.37
2023-02-02T02:02:54.982Z,20.03
2023-02-02T02:05:27.955Z,21.23
2023-02-02T02:08:01.908Z,16.27
2023-02-02T02:10:29.283Z,14.73
2023-02-02T02:12:56.191Z,24.50
2023-02-02T02:15:43.834Z,13.70
2023-02-02T02:18:23.963Z,26.13
2023-02-02T02:21:49.762Z,20.33
2023-02-02T02:25:17.450Z,25.33
2023-02-02T02:28:12.495Z,27.73
2023-02-02T02:31:13.436Z,20.83
2023-02-02T02:33:49.087Z,26.03
2023-02-02T02:36:20.656Z,9.13
2023-02-02T02:38:56.544Z,28.80
2023-02-02T02:41:28.141Z,27.93
2023-02-02T02:43:59.250Z,29.97
2023-02-02T02:46:28.287Z,24.60
2023-02-02T02:48:59.588Z,27.00
2023-02-02T02:51:51.933Z,23.77
2023-02-02T02:54:22.383Z,19.90
2023-02-02T02:57:09.511Z,19.87
2023-02-02T02:59:43.212Z,24.63
2023-02-02T03:02:24.648Z,26.77
2023-02-02T03:05:02.871Z,21.93
2023-02-02T03:07:35.992Z,21.57
2023-02-02T03:10:05.875Z,30.30
2023-02-02T03:12:33.175Z,19.43
2023-02-02T03:15:04.292Z,20.93
2023-02-02T03:17:32.863Z,17.10
2023-02-02T03:20:01.182Z,22.67
2023-02-02T03:22:28.446Z,19.80
2023-02-02T03:24:56.888Z,27.20
2023-02-02T03:27:24.143Z,21.10
2023-02-02T03:29:51.088Z,20.70
2023-02-02T03:32:18.702Z,16.73
2023-02-02T03:34:45.601Z,20.37
2023-02-02T03:37:14.277Z,26.63
2023-02-02T03:39:41.194Z,22.27
2023-02-02T03:42:08.504Z,22.13
2023-02-02T03:44:35.663Z,22.70
2023-02-02T03:47:02.820Z,24.87
2023-02-02T03:49:29.709Z,21.10
2023-02-02T03:51:56.902Z,26.27
2023-02-02T03:54:25.183Z,14.73
2023-02-02T03:56:52.111Z,22.17
2023-02-02T03:59:19.059Z,20.23
2023-02-02T04:01:45.978Z,22.00
2023-02-02T04:04:13.022Z,24.03
2023-02-02T04:06:39.949Z,24.13
2023-02-02T04:09:07.078Z,23.07
2023-02-02T04:11:36.412Z,14.43
2023-02-02T04:14:03.361Z,19.10
2023-02-02T04:16:35.114Z,16.10
2023-02-02T04:19:02.069Z,24.33
2023-02-02T04:21:29.339Z,27.77
2023-02-02T04:23:56.391Z,21.90
2023-02-02T04:26:25.917Z,22.00
2023-02-02T04:28:54.418Z,29.13
2023-02-02T04:31:21.379Z,41.77
2023-02-02T04:33:48.541Z,19.50
2023-02-02T04:36:15.903Z,27.20
2023-02-02T04:38:43.179Z,22.57
2023-02-02T04:41:11.975Z,21.60
2023-02-02T04:43:39.387Z,31.10
2023-02-02T04:46:07.752Z,30.10
2023-02-02T04:48:35.093Z,17.97
2023-02-02T04:51:03.299Z,23.70
2023-02-02T04:53:30.279Z,20.90
2023-02-02T04:55:57.310Z,27.47
2023-02-02T04:58:24.753Z,19.13
2023-02-02T05:00:51.634Z,25.77
2023-02-02T05:03:20.034Z,26.17
2023-02-02T05:05:47.021Z,25.27
2023-02-02T05:08:14.184Z,25.93
2023-02-02T05:10:41.935Z,23.33
2023-02-02T05:13:09.735Z,25.60
2023-02-02T05:15:36.628Z,35.43
2023-02-02T05:18:04.068Z,35.40
2023-02-02T05:20:32.311Z,32.07
2023-02-02T05:22:59.529Z,31.23
2023-02-02T05:25:26.749Z,21.83
2023-02-02T05:27:54.123Z,15.33
2023-02-02T05:30:21.219Z,31.13
2023-02-02T05:32:48.483Z,28.60
2023-02-02T05:35:15.428Z,23.83
2023-02-02T05:37:44.264Z,25.07
2023-02-02T05:40:12.004Z,24.70
2023-02-02T05:42:39.283Z,23.43
2023-02-02T05:45:06.984Z,39.00
2023-02-02T05:47:35.954Z,23.20
2023-02-02T05:50:03.210Z,33.40
2023-02-02T05:52:34.682Z,37.43
2023-02-02T05:55:03.232Z,31.20
2023-02-02T05:57:30.580Z,24.77
2023-02-02T05:59:57.472Z,28.17
2023-02-02T06:02:24.761Z,25.17
2023-02-02T06:04:51.699Z,31.73
2023-02-02T06:07:19.111Z,27.97
2023-02-02T06:09:46.063Z,27.17
2023-02-02T06:12:14.368Z,30.20
2023-02-02T06:14:41.389Z,27.37
2023-02-02T06:17:08.454Z,32.53
2023-02-02T06:19:35.356Z,25.80
2023-02-02T06:22:02.772Z,28.70
2023-02-02T06:24:29.697Z,30.83
2023-02-02T06:26:57.058Z,28.67
2023-02-02T06:29:25.499Z,25.37
2023-02-02T06:31:52.966Z,33.00
2023-02-02T06:34:20.050Z,28.90
2023-02-02T06:36:47.065Z,33.10
2023-02-02T06:39:13.957Z,30.10
2023-02-02T06:41:41.558Z,37.00
2023-02-02T06:44:08.575Z,33.23
2023-02-02T06:46:36.894Z,31.40
2023-02-02T06:49:03.792Z,30.30
2023-02-02T06:51:31.005Z,24.77
2023-02-02T06:53:59.556Z,35.00
2023-02-02T06:56:26.870Z,25.30
2023-02-02T06:58:53.699Z,32.27
2023-02-02T07:01:20.666Z,28.57
2023-02-02T07:03:51.086Z,27.47
2023-02-02T07:06:19.975Z,33.00
2023-02-02T07:08:57.533Z,26.40
2023-02-02T07:11:30.104Z,29.47
2023-02-02T07:13:57.347Z,37.83
2023-02-02T07:16:24.513Z,41.90
2023-02-02T07:18:52.877Z,30.57
2023-02-02T07:21:21.888Z,32.57
2023-02-02T07:23:48.788Z,32.10
2023-02-02T07:26:17.417Z,25.10
2023-02-02T07:28:45.080Z,27.23
2023-02-02T07:31:16.983Z,32.73
2023-02-02T07:33:44.991Z,29.20
2023-02-02T07:36:16.568Z,20.10
2023-02-02T07:38:43.912Z,25.60
2023-02-02T07:41:11.221Z,36.50
2023-02-02T07:43:38.381Z,31.97
2023-02-02T07:46:08.604Z,31.00
2023-02-02T07:48:36.200Z,32.53
2023-02-02T07:51:04.466Z,27.87
2023-02-02T07:53:33.660Z,20.53
2023-02-02T07:56:11.374Z,33.60
2023-02-02T07:58:38.412Z,27.27
2023-02-02T08:01:07.735Z,35.30
2023-02-02T08:03:35.975Z,28.53
2023-02-02T08:06:11.944Z,31.53
2023-02-02T08:08:40.636Z,26.03
2023-02-02T08:11:10.180Z,28.90
2023-02-02T08:13:37.476Z,31.97
2023-02-02T08:16:05.429Z,27.10
2023-02-02T08:18:33.510Z,20.53
2023-02-02T08:21:01.262Z,23.10
2023-02-02T08:23:28.771Z,27.43
2023-02-02T08:26:06.685Z,26.13
2023-02-02T08:28:35.221Z,32.27
2023-02-02T08:31:06.063Z,32.87
2023-02-02T08:33:33.099Z,25.43
2023-02-02T08:36:00.179Z,29.27
2023-02-02T08:38:27.088Z,35.20
2023-02-02T08:40:54.364Z,31.77
2023-02-02T08:43:22.679Z,37.47
2023-02-02T08:46:01.352Z,32.20
2023-02-02T08:48:39.271Z,27.10
2023-02-02T08:51:08.376Z,26.27
2023-02-02T08:53:35.318Z,31.40
2023-02-02T08:56:04.222Z,29.73
2023-02-02T08:58:33.864Z,33.37
2023-02-02T09:01:06.373Z,40.13
2023-02-02T09:03:33.492Z,31.37
2023-02-02T09:06:04.400Z,28.60
2023-02-02T09:08:33.740Z,25.60
2023-02-02T09:11:05.676Z,30.90
2023-02-02T09:13:34.201Z,32.47
2023-02-02T09:16:01.558Z,31.60
2023-02-02T09:18:28.621Z,31.43
2023-02-02T09:20:59.080Z,35.67
2023-02-02T09:23:26.126Z,38.30
2023-02-02T09:25:53.235Z,30.73
2023-02-02T09:28:20.187Z,25.73
2023-02-02T09:30:48.908Z,28.20
2023-02-02T09:33:15.770Z,28.03
2023-02-02T09:35:42.697Z,23.30
2023-02-02T09:38:09.638Z,39.87
2023-02-02T09:40:36.861Z,36.07
2023-02-02T09:43:14.998Z,27.00
2023-02-02T09:45:47.914Z,33.90
2023-02-02T09:48:30.668Z,34.80
2023-02-02T09:51:03.341Z,26.30
2023-02-02T09:53:53.154Z,26.90
2023-02-02T09:56:24.903Z,29.43
2023-02-02T09:58:54.852Z,32.87
2023-02-02T10:01:25.533Z,28.50
2023-02-02T10:04:01.426Z,26.73
2023-02-02T10:06:35.608Z,37.17
2023-02-02T10:09:12.245Z,23.77
2023-02-02T10:11:47.082Z,41.77
2023-02-02T10:14:20.361Z,29.87
2023-02-02T10:16:49.530Z,25.83
2023-02-02T10:19:18.011Z,38.97
2023-02-02T10:21:52.139Z,27.23
2023-02-02T10:24:21.958Z,33.20
2023-02-02T10:26:51.713Z,39.00
2023-02-02T10:29:40.146Z,21.73
2023-02-02T10:32:23.249Z,25.63
2023-02-02T10:35:13.616Z,33.03
2023-02-02T10:37:49.049Z,19.93
2023-02-02T10:40:23.674Z,30.80
2023-02-02T10:43:32.052Z,27.13
2023-02-02T10:46:02.255Z,27.17
2023-02-02T10:48:35.707Z,27.03
2023-02-02T10:51:12.035Z,38.47
2023-02-02T10:53:39.127Z,20.43
2023-02-02T10:56:11.684Z,19.33
2023-02-02T10:58:44.805Z,24.77
2023-02-02T11:01:12.670Z,27.37
2023-02-02T11:03:40.226Z,28.03
2023-02-02T11:06:27.156Z,23.70
2023-02-02T11:08:59.471Z,32.00
2023-02-02T11:11:30.108Z,29.23
2023-02-02T11:14:01.350Z,28.40
2023-02-02T11:16:41.955Z,25.73
2023-02-02T11:19:29.966Z,25.83
2023-02-02T11:21:59.668Z,21.80
2023-02-02T11:24:28.781Z,22.73
2023-02-02T11:26:58.138Z,17.00
2023-02-02T11:29:29.612Z,21.83
2023-02-02T11:31:57.017Z,18.77
2023-02-02T11:34:25.735Z,27.57
2023-02-02T11:37:03.617Z,23.60
2023-02-02T11:39:31.181Z,22.83
2023-02-02T11:42:04.023Z,26.47
2023-02-02T11:44:32.660Z,30.07
2023-02-02T11:47:00.557Z,24.27
2023-02-02T11:49:28.605Z,22.10
2023-02-02T11:52:02.235Z,23.50
2023-02-02T11:54:33.616Z,28.97
2023-02-02T11:57:02.948Z,21.53
2023-02-02T11:59:37.731Z,19.73
2023-02-02T12:02:25.024Z,23.37
2023-02-02T12:04:54.440Z,20.67
2023-02-02T12:07:27.868Z,20.10
2023-02-02T12:10:01.150Z,20.87
2023-02-02T12:12:38.975Z,13.67
2023-02-02T12:15:20.220Z,24.77
2023-02-02T12:17:48.484Z,23.97
2023-02-02T12:20:32.055Z,27.00
2023-02-02T12:23:19.894Z,14.13
2023-02-02T12:26:15.371Z,17.37
2023-02-02T12:29:15.467Z,21.57
2023-02-02T12:31:53.697Z,16.60
2023-02-02T12:34:30.410Z,27.30
2023-02-02T12:37:08.111Z,24.87
2023-02-02T12:39:46.518Z,23.27
2023-02-02T12:42:36.596Z,20.37
2023-02-02T12:45:43.072Z,28.83
2023-02-02T12:48:27.438Z,16.17
2023-02-02T12:51:07.901Z,13.73
2023-02-02T12:54:32.772Z,22.13
2023-02-02T12:56:45.252Z,21.60
2023-02-02T12:59:22.786Z,21.53
2023-02-02T13:02:03.473Z,17.10
2023-02-02T13:04:49.978Z,14.43
2023-02-02T13:07:26.841Z,14.63
2023-02-02T13:10:06.732Z,17.93
2023-02-02T13:12:38.648Z,19.60
2023-02-02T13:15:09.771Z,20.00
2023-02-02T13:17:40.816Z,16.77
2023-02-02T13:20:18.764Z,33.07
2023-02-02T13:22:50.502Z,17.63
2023-02-02T13:25:24.024Z,19.37
2023-02-02T13:27:53.587Z,19.87
2023-02-02T13:30:32.180Z,14.10
2023-02-02T13:33:02.481Z,21.53
2023-02-02T13:35:34.734Z,17.73
2023-02-02T13:38:11.642Z,17.07
2023-02-02T13:40:40.198Z,16.00
2023-02-02T13:43:22.162Z,12.70
2023-02-02T13:46:06.909Z,21.13
2023-02-02T13:48:47.595Z,19.93
2023-02-02T13:51:40.156Z,21.63
2023-02-02T13:54:42.828Z,18.97
2023-02-02T13:57:28.114Z,16.27
2023-02-02T14:00:04.212Z,16.50
2023-02-02T14:02:38.834Z,15.17
2023-02-02T14:05:07.345Z,21.33
2023-02-02T14:07:41.838Z,25.67
2023-02-02T14:10:24.342Z,23.53
2023-02-02T14:12:54.771Z,17.90
2023-02-02T14:15:39.735Z,22.47
2023-02-02T14:18:07.266Z,13.27
2023-02-02T14:20:48.209Z,16.53
2023-02-02T14:23:51.114Z,25.93
2023-02-02T14:26:22.121Z,18.80
2023-02-02T14:28:51.270Z,18.23
2023-02-02T14:31:52.559Z,18.13
2023-02-02T14:34:31.115Z,24.60
2023-02-02T14:37:40.004Z,20.37
2023-02-02T14:40:42.241Z,22.00
2023-02-02T14:43:37.861Z,21.90
2023-02-02T14:46:36.680Z,13.47
2023-02-02T14:49:21.105Z,31.17
2023-02-02T14:51:55.456Z,20.60
2023-02-02T14:54:26.593Z,18.70
2023-02-02T14:56:58.164Z,16.63
2023-02-02T14:59:28.678Z,24.10
2023-02-02T15:02:02.588Z,18.77
2023-02-02T15:04:31.309Z,16.13
2023-02-02T15:07:50.883Z,23.83
2023-02-02T15:10:57.413Z,18.40
2023-02-02T15:13:26.850Z,21.07
2023-02-02T15:16:05.507Z,23.73
2023-02-02T15:18:39.551Z,15.40
2023-02-02T15:21:08.027Z,15.00
2023-02-02T15:23:41.262Z,20.33
2023-02-02T15:26:15.349Z,14.50
2023-02-02T15:28:45.575Z,21.27
2023-02-02T15:31:20.332Z,16.80
2023-02-02T15:33:50.231Z,14.23
2023-02-02T15:36:20.582Z,13.83
2023-02-02T15:38:52.568Z,21.97
2023-02-02T15:41:23.623Z,14.60
2023-02-02T15:43:51.693Z,15.93
2023-02-02T15:46:24.440Z,21.23
2023-02-02T15:49:33.924Z,17.83
2023-02-02T15:52:10.674Z,16.27
2023-02-02T15:54:48.236Z,23.97
2023-02-02T15:57:29.636Z,10.90
2023-02-02T15:59:57.270Z,22.00
2023-02-02T16:02:32.415Z,11.97
2023-02-02T16:04:59.419Z,14.67
2023-02-02T16:07:31.056Z,20.50
2023-02-02T16:10:05.259Z,18.57
2023-02-02T16:12:34.468Z,17.47
2023-02-02T16:15:01.799Z,25.10
2023-02-02T16:17:32.035Z,17.53
2023-02-02T16:20:03.317Z,19.83
2023-02-02T16:22:31.696Z,21.93
2023-02-02T16:25:01.946Z,22.97
2023-02-02T16:27:31.783Z,19.10
2023-02-02T16:30:01.541Z,21.00
2023-02-02T16:32:31.833Z,20.73
2023-02-02T16:34:59.929Z,20.33
2023-02-02T16:37:29.128Z,26.90
2023-02-02T16:39:57.618Z,19.20
2023-02-02T16:42:26.941Z,20.23
2023-02-02T16:44:56.319Z,24.33
2023-02-02T16:47:36.125Z,20.23
2023-02-02T16:50:26.536Z,24.33
2023-02-02T16:52:55.748Z,20.57
2023-02-02T16:55:24.244Z,27.37
2023-02-02T16:57:52.576Z,24.97
2023-02-02T17:00:23.905Z,23.90
2023-02-02T17:02:55.955Z,25.60
2023-02-02T17:05:29.011Z,24.50
2023-02-02T17:08:01.171Z,25.53
2023-02-02T17:10:33.586Z,27.20
2023-02-02T17:13:02.067Z,24.37
2023-02-02T17:15:35.017Z,22.47
2023-02-02T17:18:03.968Z,22.60
2023-02-02T17:20:32.504Z,36.53
2023-02-02T17:23:04.897Z,14.93
2023-02-02T17:25:37.222Z,20.93
2023-02-02T17:28:09.884Z,23.73
2023-02-02T17:30:40.418Z,19.30
2023-02-02T17:33:11.717Z,21.33
2023-02-02T17:35:53.038Z,24.03
2023-02-02T17:38:21.605Z,29.43
2023-02-02T17:40:48.997Z,24.13
2023-02-02T17:43:16.581Z,22.90
2023-02-02T17:45:45.174Z,22.30
2023-02-02T17:48:13.695Z,22.47
2023-02-02T17:50:41.691Z,21.63
2023-02-02T17:53:11.757Z,14.63
2023-02-02T17:55:41.916Z,19.00
2023-02-02T17:58:10.494Z,17.17
2023-02-02T18:00:39.194Z,21.13
2023-02-02T18:03:13.363Z,19.70
2023-02-02T18:05:43.211Z,20.43
2023-02-02T18:08:11.555Z,17.67
2023-02-02T18:10:38.752Z,26.30
2023-02-02T18:13:06.090Z,24.17
2023-02-02T18:15:35.152Z,18.20
2023-02-02T18:18:02.975Z,21.10
2023-02-02T18:20:31.241Z,16.67
2023-02-02T18:22:58.450Z,21.37
2023-02-02T18:25:26.449Z,18.60
2023-02-02T18:27:56.367Z,15.80
2023-02-02T18:30:25.214Z,19.73
2023-02-02T18:32:52.639Z,16.57
2023-02-02T18:35:19.967Z,14.93
2023-02-02T18:37:49.258Z,15.00
2023-02-02T18:40:16.868Z,14.43
2023-02-02T18:42:43.875Z,17.00
2023-02-02T18:45:11.666Z,11.43
2023-02-02T18:47:41.259Z,13.33
2023-02-02T18:50:13.108Z,15.37
2023-02-02T18:52:39.956Z,15.90
2023-02-02T18:55:09.482Z,16.60
2023-02-02T18:57:36.468Z,12.47
2023-02-02T19:00:05.433Z,9.73
2023-02-02T19:02:32.445Z,17.00
2023-02-02T19:05:18.221Z,16.83
2023-02-02T19:07:57.117Z,9.40
2023-02-02T19:10:28.571Z,13.53
2023-02-02T19:12:58.678Z,16.90
2023-02-02T19:15:27.707Z,10.23
2023-02-02T19:17:56.771Z,15.40
2023-02-02T19:20:28.966Z,12.23
2023-02-02T19:23:03.070Z,11.43
2023-02-02T19:25:31.729Z,12.33
2023-02-02T19:28:02.037Z,11.30
2023-02-02T19:30:29.099Z,14.43
2023-02-02T19:32:56.563Z,11.80
2023-02-02T19:35:27.553Z,10.80
2023-02-02T19:38:00.845Z,12.83
2023-02-02T19:40:28.062Z,11.90
2023-02-02T19:43:08.753Z,10.13
2023-02-02T19:45:36.077Z,13.87
2023-02-02T19:48:15.494Z,10.67
2023-02-02T19:50:42.845Z,10.63
2023-02-02T19:53:16.303Z,12.73
2023-02-02T19:55:44.268Z,17.93
2023-02-02T19:58:19.944Z,15.17
2023-02-02T20:00:47.797Z,10.77
2023-02-02T20:03:18.786Z,15.83
2023-02-02T20:05:50.719Z,14.10
2023-02-02T20:08:26.870Z,10.50
2023-02-02T20:10:55.692Z,11.87
2023-02-02T20:13:32.918Z,10.63
2023-02-02T20:16:04.329Z,16.77
2023-02-02T20:18:41.869Z,12.90
2023-02-02T20:21:19.767Z,11.97
2023-02-02T20:23:46.932Z,16.97
2023-02-02T20:26:22.146Z,8.63
2023-02-02T20:28:52.019Z,14.40
2023-02-02T20:31:21.459Z,10.47
2023-02-02T20:33:50.609Z,8.47
2023-02-02T20:36:30.795Z,15.07
2023-02-02T20:39:01.593Z,15.70
2023-02-02T20:41:28.611Z,15.80
2023-02-02T20:43:56.944Z,12.53
2023-02-02T20:46:24.135Z,13.33
2023-02-02T20:48:51.038Z,16.40
2023-02-02T20:51:18.399Z,17.33
2023-02-02T20:53:45.516Z,14.77
2023-02-02T20:56:12.450Z,15.27
2023-02-02T20:58:39.809Z,14.03
2023-02-02T21:01:08.528Z,10.27
2023-02-02T21:03:35.444Z,13.77
2023-02-02T21:06:02.463Z,10.23
2023-02-02T21:08:29.525Z,9.47
2023-02-02T21:10:56.896Z,9.13
2023-02-02T21:13:23.969Z,11.60
2023-02-02T21:15:51.205Z,7.47
2023-02-02T21:18:19.481Z,12.57
2023-02-02T21:20:46.739Z,15.20
2023-02-02T21:23:13.855Z,10.70
2023-02-02T21:25:41.109Z,10.03
2023-02-02T21:28:08.337Z,8.10
2023-02-02T21:30:36.186Z,8.90
2023-02-02T21:33:05.043Z,14.33
2023-02-02T21:35:33.631Z,7.67
2023-02-02T21:38:07.341Z,6.43
2023-02-02T21:40:34.965Z,9.40
2023-02-02T21:43:11.367Z,8.37
2023-02-02T21:45:39.156Z,8.47
2023-02-02T21:48:20.565Z,7.60
2023-02-02T21:50:48.933Z,8.00
2023-02-02T21:53:22.609Z,6.23
2023-02-02T21:55:52.989Z,4.80
2023-02-02T21:58:22.610Z,6.47
2023-02-02T22:00:50.591Z,7.73
2023-02-02T22:03:28.468Z,7.00
2023-02-02T22:06:17.842Z,6.30
2023-02-02T22:08:44.808Z,7.57
2023-02-02T22:11:23.221Z,7.47
2023-02-02T22:13:52.699Z,4.90
2023-02-02T22:16:20.928Z,3.97
2023-02-02T22:18:48.219Z,5.10
2023-02-02T22:21:20.788Z,6.10
2023-02-02T22:23:47.996Z,5.33
2023-02-02T22:26:31.300Z,5.30
2023-02-02T22:28:58.560Z,6.07
2023-02-02T22:31:25.571Z,9.00
2023-02-02T22:33:53.089Z,6.20
2023-02-02T22:36:21.402Z,5.03
2023-02-02T22:38:48.637Z,4.43
2023-02-02T22:41:15.643Z,7.43
2023-02-02T22:43:42.550Z,5.50
2023-02-02T22:46:09.517Z,6.87
2023-02-02T22:48:36.807Z,8.00
2023-02-02T22:51:03.814Z,5.57
2023-02-02T22:53:32.525Z,7.30
2023-02-02T22:55:59.478Z,5.67
2023-02-02T22:58:26.810Z,6.13
2023-02-02T23:00:53.733Z,5.30
2023-02-02T23:03:21.259Z,4.77
2023-02-02T23:05:48.179Z,10.07
2023-02-02T23:08:15.655Z,5.97
2023-02-02T23:10:43.839Z,7.50
2023-02-02T23:13:10.851Z,6.57
2023-02-02T23:15:37.814Z,6.20
2023-02-02T23:18:05.238Z,7.33
2023-02-02T23:20:32.512Z,7.77
2023-02-02T23:22:59.471Z,6.13
2023-02-02T23:25:26.510Z,7.07
2023-02-02T23:27:54.951Z,6.17
2023-02-02T23:30:24.927Z,7.00
2023-02-02T23:32:52.985Z,5.53
2023-02-02T23:35:20.273Z,6.00
2023-02-02T23:37:47.207Z,8.17
2023-02-02T23:40:14.141Z,6.23
2023-02-02T23:42:41.073Z,7.60
2023-02-02T23:45:10.618Z,7.83
2023-02-02T23:47:37.787Z,7.00
2023-02-02T23:50:07.876Z,7.60
2023-02-02T23:52:35.692Z,7.03
2023-02-02T23:55:03.702Z,8.17
2023-02-02T23:57:30.902Z,7.37
2023-02-02T23:59:58.188Z,7.43
